Time;durP1;ratioP1;P1;durP2;ratioP2;P2;SDS_P1;SDS_P2;PMS_P1;PMS_P2;Temp;Humidity;BMP_temperature;BMP_pressure;BME280_temperature;BME280_humidity;BME280_pressure;Samples;Min_cycle;Max_cycle;Signal;HPM_P1;HPM_P2
2021/05/26 05:01:39;;;;;;;2.65;2.40;;;;;;;24.93;49.82;100398.16;1824927;77;22629;-72
2021/05/26 05:04:07;;;;;;;3.30;2.58;;;;;;;24.88;50.05;100391.67;1792344;79;21067;-66
2021/05/26 05:06:36;;;;;;;8.98;3.42;;;;;;;24.75;49.96;100394.89;1799294;79;21095;-68
2021/05/26 05:09:06;;;;;;;5.42;2.45;;;;;;;24.52;50.50;100404.55;1786163;77;21022;-73
2021/05/26 05:11:35;;;;;;;4.22;2.45;;;;;;;24.28;50.64;100396.57;1787864;77;20963;-71
2021/05/26 05:14:03;;;;;;;5.28;2.92;;;;;;;24.15;51.12;100391.70;1792754;77;21624;-74
2021/05/26 05:16:32;;;;;;;5.25;2.50;;;;;;;24.23;51.34;100380.56;1793922;77;20987;-71
2021/05/26 05:19:01;;;;;;;4.17;2.42;;;;;;;24.44;51.00;100377.92;1795279;77;21755;-67
2021/05/26 05:21:31;;;;;;;4.58;2.60;;;;;;;24.80;49.90;100373.05;1796258;79;21062;-67
2021/05/26 05:24:01;;;;;;;6.28;3.00;;;;;;;25.34;48.39;100370.58;1788897;79;21046;-70
2021/05/26 05:26:29;;;;;;;4.70;2.77;;;;;;;25.62;47.66;100357.09;1801744;79;20959;-72
2021/05/26 05:28:56;;;;;;;7.47;3.08;;;;;;;25.47;47.85;100350.36;1787452;79;21620;-68
2021/05/26 05:31:24;;;;;;;2.98;2.67;;;;;;;25.11;48.47;100361.19;1789702;79;21704;-66
2021/05/26 05:33:51;;;;;;;2.65;2.45;;;;;;;24.79;49.16;100370.08;1793335;79;21563;-69
2021/05/26 05:36:18;;;;;;;9.58;2.52;;;;;;;24.51;50.14;100372.27;1789730;77;21116;-68
2021/05/26 05:38:49;;;;;;;2.65;2.22;;;;;;;24.31;50.71;100374.95;1786171;79;21082;-69
2021/05/26 05:41:19;;;;;;;6.78;2.20;;;;;;;24.26;51.28;100378.11;1790069;77;20994;-68
2021/05/26 05:43:46;;;;;;;3.72;2.22;;;;;;;24.37;51.53;100382.27;1792126;79;21122;-66
2021/05/26 05:46:13;;;;;;;9.33;2.52;;;;;;;24.58;51.16;100374.09;1779558;79;21022;-70
2021/05/26 05:48:41;;;;;;;4.40;2.10;;;;;;;24.73;50.81;100381.41;1780572;79;20944;-66
2021/05/26 05:51:08;;;;;;;2.62;2.00;;;;;;;25.01;50.08;100376.03;1788554;79;20947;-66
2021/05/26 05:53:35;;;;;;;2.45;2.20;;;;;;;25.45;49.42;100377.70;1793705;79;21512;-69
2021/05/26 05:56:03;;;;;;;11.28;2.92;;;;;;;26.03;48.07;100376.37;1792425;79;21041;-65
2021/05/26 05:58:31;;;;;;;4.28;2.45;;;;;;;26.64;47.14;100379.08;1792063;79;20981;-65
2021/05/26 06:00:59;;;;;;;4.60;2.35;;;;;;;27.23;45.04;100365.25;1780412;79;21572;-65
2021/05/26 06:03:27;;;;;;;3.85;2.42;;;;;;;27.42;44.74;100363.85;1780929;79;20919;-65
2021/05/26 06:05:55;;;;;;;6.40;2.62;;;;;;;27.17;45.11;100369.52;1781769;79;22067;-73
2021/05/26 06:08:24;;;;;;;2.83;2.20;;;;;;;26.81;45.86;100371.20;1773141;79;21044;-67
2021/05/26 06:10:51;;;;;;;3.62;2.55;;;;;;;26.46;46.32;100377.56;1770236;78;21882;-68
2021/05/26 06:13:19;;;;;;;4.35;2.52;;;;;;;26.09;46.98;100368.16;1784006;78;20964;-69
2021/05/26 06:15:49;;;;;;;2.25;2.00;;;;;;;25.67;47.73;100364.10;1781564;78;21234;-72
2021/05/26 06:18:19;;;;;;;6.92;2.70;;;;;;;25.36;48.68;100371.23;1784744;79;21135;-72
2021/05/26 06:20:47;;;;;;;2.77;2.58;;;;;;;25.19;49.38;100371.83;1778286;79;21979;-67
2021/05/26 06:23:21;;;;;;;2.98;2.77;;;;;;;25.17;49.83;100364.50;1777484;79;20946;-72
2021/05/26 06:25:51;;;;;;;6.42;2.55;;;;;;;25.37;49.45;100368.40;1774078;79;20984;-73
2021/05/26 06:28:19;;;;;;;3.40;2.30;;;;;;;25.59;49.29;100366.81;1773635;79;20893;-68
2021/05/26 06:30:47;;;;;;;5.10;2.30;;;;;;;25.78;48.56;100371.71;1777553;79;20947;-71
2021/05/26 06:33:14;;;;;;;5.17;2.37;;;;;;;25.88;48.19;100373.66;1774973;79;21494;-66
2021/05/26 06:35:42;;;;;;;4.37;3.30;;;;;;;25.93;48.00;100376.30;1791677;79;20968;-79
2021/05/26 06:38:09;;;;;;;2.20;2.10;;;;;;;25.95;47.90;100374.28;1783401;79;21031;-72
2021/05/26 06:40:36;;;;;;;4.58;2.60;;;;;;;25.96;47.85;100387.95;1783125;79;20965;-76
2021/05/26 06:43:03;;;;;;;5.58;2.52;;;;;;;25.94;48.01;100377.96;1722533;83;20992;-69
2021/05/26 06:45:31;;;;;;;3.75;2.65;;;;;;;25.86;47.68;100382.34;1737611;82;21499;-69
2021/05/26 06:47:58;;;;;;;7.30;3.45;;;;;;;25.71;48.01;100377.92;1778944;79;21257;-70
2021/05/26 06:50:27;;;;;;;3.40;2.50;;;;;;;25.47;48.50;100378.86;1777239;79;20937;-72
2021/05/26 06:52:55;;;;;;;3.65;3.35;;;;;;;25.24;49.19;100378.77;1769928;79;21016;-73
2021/05/26 06:55:24;;;;;;;7.60;4.42;;;;;;;25.18;49.92;100372.83;1713502;83;21021;-69
2021/05/26 06:57:51;;;;;;;6.08;3.10;;;;;;;25.19;49.98;100371.83;1734984;81;21640;-69
2021/05/26 07:00:19;;;;;;;3.65;2.65;;;;;;;25.12;50.37;100368.18;1710409;82;21142;-70
2021/05/26 07:02:46;;;;;;;4.05;2.95;;;;;;;24.99;50.26;100371.38;1734024;82;20940;-69
2021/05/26 07:05:13;;;;;;;2.90;2.70;;;;;;;24.83;50.67;100373.53;1729765;82;21016;-67
2021/05/26 07:07:41;;;;;;;2.80;2.47;;;;;;;24.67;50.96;100373.59;1734925;82;20984;-70
2021/05/26 07:10:10;;;;;;;8.15;3.25;;;;;;;24.53;51.31;100376.92;1731241;82;21459;-69
2021/05/26 07:12:37;;;;;;;3.87;2.80;;;;;;;24.42;51.69;100376.75;1730757;82;21059;-71
2021/05/26 07:15:07;;;;;;;5.70;3.20;;;;;;;24.34;51.84;100387.42;1729602;82;21029;-68
2021/05/26 07:17:35;;;;;;;4.75;3.17;;;;;;;24.28;52.39;100394.73;1733835;82;21016;-64
2021/05/26 07:20:04;;;;;;;3.20;2.77;;;;;;;24.21;53.05;100391.88;1727768;82;21613;-65
2021/05/26 07:22:31;;;;;;;3.85;3.37;;;;;;;24.12;53.55;100400.00;1738092;82;21724;-70
2021/05/26 07:25:00;;;;;;;9.78;3.70;;;;;;;24.01;53.88;100415.78;1732294;82;20925;-70
2021/05/26 07:27:27;;;;;;;8.93;3.77;;;;;;;23.95;54.38;100417.78;1740054;82;21025;-68
2021/05/26 07:29:54;;;;;;;7.97;4.10;;;;;;;24.16;54.86;100414.65;1733940;82;20988;-74
2021/05/26 07:32:22;;;;;;;5.33;3.60;;;;;;;24.50;54.31;100422.02;1722700;82;21697;-69
2021/05/26 07:34:49;;;;;;;5.78;4.17;;;;;;;24.76;52.87;100415.19;1730096;82;23198;-69
2021/05/26 07:37:18;;;;;;;6.55;4.00;;;;;;;24.87;52.43;100417.48;1732970;82;21016;-71
2021/05/26 07:39:45;;;;;;;14.93;5.53;;;;;;;24.99;52.35;100422.50;1733885;82;21000;-76
2021/05/26 07:42:14;;;;;;;7.30;3.95;;;;;;;25.13;52.52;100423.14;1729925;82;21024;-72
2021/05/26 07:44:41;;;;;;;8.43;4.00;;;;;;;25.31;51.63;100424.23;1734278;82;21030;-75
2021/05/26 07:47:09;;;;;;;10.53;4.50;;;;;;;25.44;50.84;100425.86;1732849;81;21866;-78
2021/05/26 07:49:37;;;;;;;6.62;3.45;;;;;;;25.51;50.26;100425.01;1701933;82;21074;-71
2021/05/26 07:52:12;;;;;;;8.03;3.77;;;;;;;25.62;50.10;100426.44;1732833;82;20964;-75
2021/05/26 07:54:40;;;;;;;6.30;3.47;;;;;;;25.69;49.95;100431.94;1733127;82;21665;-69
2021/05/26 07:57:08;;;;;;;10.38;3.90;;;;;;;25.74;49.78;100432.25;1721979;82;20993;-69
2021/05/26 07:59:35;;;;;;;5.87;3.47;;;;;;;25.80;49.80;100439.56;1734287;82;21037;-67
2021/05/26 08:02:02;;;;;;;11.50;4.25;;;;;;;25.95;49.59;100430.33;1724055;82;20972;-69
2021/05/26 08:04:34;;;;;;;10.28;3.37;;;;;;;26.14;49.24;100435.19;1772577;79;21437;-69
2021/05/26 08:07:03;;;;;;;4.95;3.33;;;;;;;26.40;48.49;100432.19;1786376;79;21063;-64
2021/05/26 08:09:30;;;;;;;4.00;3.20;;;;;;;26.66;47.75;100437.16;1787365;79;21054;-68
2021/05/26 08:11:59;;;;;;;3.25;2.87;;;;;;;26.80;46.49;100443.86;1781954;79;20861;-71
2021/05/26 08:14:25;;;;;;;6.17;2.83;;;;;;;26.75;46.06;100446.27;1788231;79;22110;-69
2021/05/26 08:16:54;;;;;;;8.53;2.95;;;;;;;26.71;46.10;100440.13;1782877;79;21066;-65
2021/05/26 08:19:21;;;;;;;3.15;2.80;;;;;;;26.63;45.76;100434.34;1776123;79;20944;-67
2021/05/26 08:21:50;;;;;;;3.40;2.50;;;;;;;26.63;45.43;100441.53;1776262;79;21435;-66
2021/05/26 08:24:18;;;;;;;4.78;2.70;;;;;;;26.76;44.77;100439.08;1776678;79;21079;-70
2021/05/26 08:26:47;;;;;;;3.98;2.75;;;;;;;26.96;43.46;100431.39;1781304;79;21023;-65
2021/05/26 08:29:14;;;;;;;4.78;2.98;;;;;;;27.17;42.60;100438.20;1765414;79;20991;-68
2021/05/26 08:31:41;;;;;;;2.70;2.50;;;;;;;27.36;42.26;100429.61;1784790;79;21003;-81
2021/05/26 08:34:09;;;;;;;4.65;2.50;;;;;;;27.59;40.80;100429.54;1784764;79;20953;-71
2021/05/26 08:36:36;;;;;;;5.15;2.52;;;;;;;27.81;40.49;100422.38;1786351;79;21410;-72
2021/05/26 08:39:05;;;;;;;2.52;2.27;;;;;;;27.98;39.31;100421.14;1799242;79;21011;-72
2021/05/26 08:41:32;;;;;;;4.92;2.00;;;;;;;28.15;37.11;100423.87;1787849;79;20964;-71
2021/05/26 08:44:02;;;;;;;1.85;1.75;;;;;;;28.28;36.81;100419.71;1788209;79;20981;-72
2021/05/26 08:46:29;;;;;;;2.35;1.87;;;;;;;28.32;35.79;100427.69;1785615;79;20909;-69
2021/05/26 08:49:01;;;;;;;3.05;1.92;;;;;;;28.26;36.49;100428.45;1781174;79;21099;-72
2021/05/26 08:51:31;;;;;;;2.02;1.80;;;;;;;28.25;36.00;100432.14;1800022;79;21367;-82
2021/05/26 08:53:58;;;;;;;2.70;1.80;;;;;;;28.17;36.45;100431.21;1790480;79;20987;-68
2021/05/26 08:56:27;;;;;;;4.37;2.02;;;;;;;28.14;36.35;100426.23;1782375;79;20960;-68
2021/05/26 08:58:53;;;;;;;2.15;1.77;;;;;;;28.09;36.04;100429.98;1786313;79;20968;-68
2021/05/26 09:01:22;;;;;;;2.42;1.67;;;;;;;28.05;36.38;100428.70;1781557;79;20975;-70
2021/05/26 09:03:51;;;;;;;1.50;1.40;;;;;;;28.03;36.78;100432.59;1769803;79;20978;-70
2021/05/26 09:06:17;;;;;;;3.35;2.00;;;;;;;28.01;36.65;100427.94;1768232;79;20979;-75
2021/05/26 09:08:52;;;;;;;3.15;2.00;;;;;;;27.96;36.89;100427.70;1787798;79;21015;-76
2021/05/26 09:11:33;;;;;;;2.80;1.95;;;;;;;27.96;36.88;100433.88;1781774;79;20920;-74
2021/05/26 09:14:12;;;;;;;3.62;2.60;;;;;;;27.96;37.35;100427.70;1787582;79;21043;-74
2021/05/26 09:16:41;;;;;;;2.70;2.40;;;;;;;27.97;39.75;100429.36;1791160;79;20999;-67
2021/05/26 09:19:09;;;;;;;6.40;2.42;;;;;;;27.93;40.99;100427.57;1784464;79;20893;-69
2021/05/26 09:21:58;;;;;;;2.85;2.47;;;;;;;27.85;41.77;100431.18;1781658;78;21619;-76
2021/05/26 09:24:27;;;;;;;3.27;2.67;;;;;;;27.67;42.24;100424.56;1773953;78;21722;-74
2021/05/26 09:27:04;;;;;;;3.77;2.30;;;;;;;27.48;42.39;100441.50;1775488;79;21156;-70
2021/05/26 09:29:43;;;;;;;4.40;2.30;;;;;;;27.24;42.70;100440.44;1786236;79;21653;-72
2021/05/26 09:32:20;;;;;;;3.45;2.33;;;;;;;27.03;43.18;100435.00;1775109;79;20987;-74
2021/05/26 09:34:55;;;;;;;4.97;2.58;;;;;;;26.79;43.48;100433.37;1769880;79;20976;-67
2021/05/26 09:37:30;;;;;;;2.77;1.82;;;;;;;26.53;43.75;100439.09;1769179;79;21022;-68
2021/05/26 09:40:06;;;;;;;2.60;2.40;;;;;;;26.34;44.13;100435.59;1775876;79;23168;-70
2021/05/26 09:42:38;;;;;;;6.35;2.17;;;;;;;26.20;44.78;100445.16;1771776;79;20991;-66
2021/05/26 09:45:20;;;;;;;7.47;2.42;;;;;;;26.08;44.95;100442.56;1770883;79;20979;-68
2021/05/26 09:47:53;;;;;;;3.87;2.60;;;;;;;25.99;45.09;100442.31;1771625;79;20968;-68
2021/05/26 09:50:27;;;;;;;2.85;2.50;;;;;;;25.91;45.70;100447.19;1770371;79;20909;-67
2021/05/26 09:53:01;;;;;;;2.57;2.37;;;;;;;25.86;45.64;100444.20;1774787;79;21657;-67
2021/05/26 09:55:37;;;;;;;2.60;2.35;;;;;;;25.83;45.36;100444.05;1777813;79;21003;-68
2021/05/26 09:58:07;;;;;;;2.58;2.37;;;;;;;25.87;45.40;100437.36;1793827;79;21027;-79
2021/05/26 10:00:35;;;;;;;4.65;2.22;;;;;;;25.89;45.52;100438.52;1782507;79;20979;-74
2021/05/26 10:03:02;;;;;;;4.03;2.30;;;;;;;25.94;45.66;100444.67;1783208;79;21513;-67
2021/05/26 10:05:30;;;;;;;2.58;2.37;;;;;;;26.05;45.57;100445.58;1790705;79;21221;-74
2021/05/26 10:08:15;;;;;;;3.40;2.40;;;;;;;26.16;45.05;100442.52;1780218;80;20967;-69
2021/05/26 10:10:57;;;;;;;4.42;2.15;;;;;;;26.33;45.08;100448.11;1748052;80;21488;-74
2021/05/26 10:13:27;;;;;;;2.47;2.27;;;;;;;26.48;44.92;100452.16;1780093;79;21584;-71
2021/05/26 10:15:55;;;;;;;6.17;2.20;;;;;;;26.62;44.32;100454.56;1780494;80;20983;-66
2021/05/26 10:18:23;;;;;;;2.92;2.00;;;;;;;26.69;43.94;100457.67;1780548;79;21029;-72
2021/05/26 10:20:50;;;;;;;2.05;1.80;;;;;;;26.68;43.31;100456.52;1714747;82;21060;-75
2021/05/26 10:23:19;;;;;;;3.50;2.08;;;;;;;26.52;42.50;100450.79;1721555;83;21016;-69
2021/05/26 10:25:48;;;;;;;4.50;2.20;;;;;;;26.36;43.16;100453.61;1721255;82;21086;-69
2021/05/26 10:28:31;;;;;;;4.37;2.62;;;;;;;26.25;44.36;100447.63;1726439;82;21023;-70
2021/05/26 10:31:00;;;;;;;7.83;2.75;;;;;;;26.18;45.40;100447.17;1748555;82;21678;-74
2021/05/26 10:33:47;;;;;;;3.35;2.37;;;;;;;26.04;45.24;100446.09;1724346;82;20928;-74
2021/05/26 10:36:16;;;;;;;3.12;2.20;;;;;;;25.93;45.75;100447.01;1723867;82;20948;-71
2021/05/26 10:39:00;;;;;;;2.77;2.30;;;;;;;25.77;46.38;100454.08;1728062;82;21507;-69
2021/05/26 10:41:50;;;;;;;12.18;2.50;;;;;;;25.64;46.91;100443.13;1750926;82;20925;-72
2021/05/26 10:44:18;;;;;;;3.67;2.58;;;;;;;25.55;47.34;100446.83;1738447;82;21067;-72
2021/05/26 10:46:49;;;;;;;2.65;2.42;;;;;;;25.51;47.88;100439.67;1721535;82;21562;-71
2021/05/26 10:49:15;;;;;;;5.28;2.67;;;;;;;25.59;47.89;100433.48;1722414;82;21470;-66
2021/05/26 10:51:57;;;;;;;2.47;2.20;;;;;;;25.65;48.22;100426.13;1727900;82;21048;-71
2021/05/26 10:54:46;;;;;;;5.95;2.65;;;;;;;25.75;48.26;100425.91;1724126;80;21544;-68
2021/05/26 10:57:13;;;;;;;4.62;2.45;;;;;;;25.83;47.98;100427.21;1732480;82;21156;-67
2021/05/26 10:59:41;;;;;;;2.85;2.42;;;;;;;25.86;47.60;100429.03;1736125;82;21060;-70
2021/05/26 11:02:09;;;;;;;3.52;2.30;;;;;;;25.89;47.40;100428.68;1735407;82;20988;-64
2021/05/26 11:04:38;;;;;;;6.65;2.65;;;;;;;25.98;47.93;100431.30;1714763;82;20941;-68
2021/05/26 11:07:24;;;;;;;7.40;5.60;;;;;;;26.11;47.21;100431.03;1708844;83;20923;-67
2021/05/26 11:10:01;;;;;;;8.13;3.20;;;;;;;26.21;46.66;100434.81;1791205;79;21046;-66
2021/05/26 11:12:50;;;;;;;5.83;2.70;;;;;;;26.33;46.61;100434.77;1780706;79;20908;-74
2021/05/26 11:15:45;;;;;;;4.00;2.50;;;;;;;26.39;46.65;100439.91;1777782;79;20916;-70
2021/05/26 11:20:55;;;;;;;8.28;3.37;;;;;;;26.13;46.84;100444.20;1757021;79;20987;-68
2021/05/26 11:23:22;;;;;;;6.75;3.58;;;;;;;26.00;47.39;100442.61;1771761;79;21118;-68
2021/05/26 11:25:55;;;;;;;4.92;3.00;;;;;;;25.88;47.66;100444.86;1782418;79;20952;-63
2021/05/26 11:28:30;;;;;;;6.22;3.62;;;;;;;25.72;47.96;100444.44;1782535;79;20963;-64
2021/05/26 11:31:04;;;;;;;5.92;3.70;;;;;;;25.54;48.25;100444.66;1774084;79;21640;-69
2021/05/26 11:33:32;;;;;;;6.00;3.35;;;;;;;25.36;48.67;100443.22;1774687;79;21589;-67
2021/05/26 11:36:11;;;;;;;7.78;3.62;;;;;;;25.11;49.67;100440.64;1773149;79;21552;-63
2021/05/26 11:38:35;;;;;;;5.50;3.12;;;;;;;24.82;50.54;100448.28;1768407;79;21633;-70
2021/05/26 11:41:17;;;;;;;5.83;3.45;;;;;;;24.56;51.45;100441.82;1768851;79;21011;-71
2021/05/26 11:43:45;;;;;;;4.45;3.30;;;;;;;24.40;52.53;100439.97;1774031;79;21027;-70
2021/05/26 11:46:12;;;;;;;9.63;4.33;;;;;;;24.29;53.10;100438.16;1778847;79;20988;-67
2021/05/26 11:48:46;;;;;;;4.40;3.12;;;;;;;24.17;53.56;100437.59;1768606;79;21158;-67
2021/05/26 11:51:24;;;;;;;3.45;3.22;;;;;;;24.10;53.63;100439.24;1775455;79;21616;-72
2021/05/26 11:53:56;;;;;;;4.67;3.72;;;;;;;23.98;53.92;100437.91;1791567;79;20924;-76
2021/05/26 11:56:24;;;;;;;4.70;3.22;;;;;;;23.75;54.56;100434.51;1769442;79;20983;-71
2021/05/26 11:58:52;;;;;;;4.00;3.50;;;;;;;23.51;55.20;100427.25;1776810;79;21020;-75
2021/05/26 12:01:20;;;;;;;4.78;3.37;;;;;;;23.31;55.92;100426.31;1774279;79;21089;-76
2021/05/26 12:03:48;;;;;;;3.58;3.22;;;;;;;23.15;56.52;100427.91;1755978;79;21636;-76
2021/05/26 12:06:19;;;;;;;10.08;3.65;;;;;;;23.03;57.04;100433.64;1795224;79;21406;-77
2021/05/26 12:08:46;;;;;;;5.65;3.52;;;;;;;22.89;57.48;100433.70;1784642;79;21006;-71
2021/05/26 12:11:14;;;;;;;3.55;3.25;;;;;;;22.72;58.13;100437.22;1782906;79;21006;-64
2021/05/26 12:13:45;;;;;;;4.17;3.27;;;;;;;22.58;58.69;100435.45;1770537;79;21086;-69
2021/05/26 12:16:21;;;;;;;4.85;3.70;;;;;;;22.50;59.10;100438.52;1789910;79;21026;-66
2021/05/26 12:18:51;;;;;;;9.05;3.77;;;;;;;22.46;59.48;100439.31;1795261;79;20892;-68
2021/05/26 12:21:21;;;;;;;6.30;3.77;;;;;;;22.40;59.97;100439.09;1787017;79;21547;-79
2021/05/26 12:23:49;;;;;;;6.75;3.62;;;;;;;22.31;60.26;100433.39;1799069;79;20907;-75
2021/05/26 12:26:33;;;;;;;4.12;3.60;;;;;;;22.22;60.52;100434.63;1789793;79;21080;-80
2021/05/26 12:29:09;;;;;;;4.87;3.05;;;;;;;22.14;60.58;100433.22;1790708;79;20943;-76
2021/05/26 12:31:32;;;;;;;4.78;3.50;;;;;;;22.06;60.78;100437.11;1793654;79;20938;-66
2021/05/26 12:33:59;;;;;;;5.53;3.40;;;;;;;21.96;61.04;100442.97;1794530;79;20955;-68
2021/05/26 12:36:33;;;;;;;5.95;3.40;;;;;;;21.86;61.31;100439.53;1793435;79;20912;-65
2021/05/26 12:39:04;;;;;;;3.72;3.40;;;;;;;21.78;61.56;100438.94;1784202;79;21465;-64
2021/05/26 12:41:34;;;;;;;4.00;3.45;;;;;;;21.71;62.09;100441.00;1780267;79;20944;-75
2021/05/26 12:44:11;;;;;;;5.45;3.60;;;;;;;21.68;62.47;100435.99;1793464;77;21368;-76
2021/05/26 12:46:44;;;;;;;7.67;3.35;;;;;;;21.63;62.87;100440.41;1781694;79;20904;-74
2021/05/26 12:49:35;;;;;;;6.75;3.70;;;;;;;21.54;63.38;100447.45;1794235;79;21001;-77
2021/05/26 12:52:09;;;;;;;6.05;3.90;;;;;;;21.45;63.45;100444.34;1784575;77;21034;-75
2021/05/26 12:54:46;;;;;;;3.83;3.45;;;;;;;21.33;63.66;100441.52;1795873;77;20912;-77
2021/05/26 12:57:22;;;;;;;4.12;3.30;;;;;;;21.23;63.74;100435.42;1796080;79;20992;-69
2021/05/26 12:59:57;;;;;;;4.92;3.40;;;;;;;21.13;64.08;100435.44;1793344;79;21030;-67
2021/05/26 13:02:41;;;;;;;;;;;;;;;21.04;64.45;100436.78;1781883;79;21072;-75
2021/05/26 13:05:06;;;;;;;3.83;3.45;;;;;;;20.89;65.22;100438.55;1778370;79;21946;-74
2021/05/26 13:07:40;;;;;;;5.40;3.45;;;;;;;20.89;65.22;100438.55;1784449;79;21012;-71
2021/05/26 13:10:17;;;;;;;4.90;3.52;;;;;;;20.83;65.76;100434.31;1785312;79;20965;-78
2021/05/26 13:12:45;;;;;;;3.92;3.52;;;;;;;20.78;66.25;100428.14;1786945;79;20980;-78
2021/05/26 13:15:30;;;;;;;7.92;4.10;;;;;;;20.77;66.48;100437.06;1790240;79;21631;-70
2021/05/26 13:17:59;;;;;;;7.00;4.10;;;;;;;20.75;66.64;100427.59;1735841;82;21530;-72
2021/05/26 13:20:33;;;;;;;9.20;4.20;;;;;;;20.73;67.11;100422.93;1735665;80;21147;-77
2021/05/26 13:23:01;;;;;;;6.37;3.40;;;;;;;20.73;67.69;100429.55;1738918;80;21720;-78
2021/05/26 13:25:29;;;;;;;6.37;3.30;;;;;;;20.76;68.00;100427.94;1750110;80;21015;-75
2021/05/26 13:27:57;;;;;;;5.90;3.33;;;;;;;20.79;67.84;100434.27;1749611;80;20914;-74
2021/05/26 13:30:27;;;;;;;4.72;3.85;;;;;;;20.78;67.72;100440.06;1726294;80;21651;-82
2021/05/26 13:32:54;;;;;;;6.12;3.45;;;;;;;20.79;67.60;100435.59;1723676;82;20949;-75
2021/05/26 13:35:21;;;;;;;6.85;3.58;;;;;;;20.79;68.03;100442.22;1724626;80;21558;-75
2021/05/26 13:37:49;;;;;;;5.92;3.60;;;;;;;20.79;68.03;100442.22;1730406;80;20984;-69
2021/05/26 13:40:16;;;;;;;5.95;3.70;;;;;;;20.77;68.01;100441.03;1744578;82;21634;-78
2021/05/26 13:42:45;;;;;;;4.50;3.27;;;;;;;20.75;68.09;100434.20;1721364;82;22059;-72
2021/05/26 13:45:13;;;;;;;8.30;3.58;;;;;;;20.69;68.17;100438.73;1722626;82;21640;-67
2021/05/26 13:47:40;;;;;;;6.75;3.58;;;;;;;20.62;68.16;100446.40;1722690;82;20913;-78
2021/05/26 13:50:16;;;;;;;3.50;3.08;;;;;;;20.57;68.41;100451.27;1722535;82;20921;-70
2021/05/26 13:52:50;;;;;;;5.20;3.55;;;;;;;20.52;68.69;100454.82;1722853;82;21635;-74
2021/05/26 13:55:19;;;;;;;3.65;3.35;;;;;;;20.44;69.03;100456.84;1723275;82;21084;-75
2021/05/26 13:57:48;;;;;;;4.08;3.20;;;;;;;20.40;69.51;100454.61;1723006;82;21011;-71
2021/05/26 14:00:17;;;;;;;8.10;3.33;;;;;;;20.35;69.80;100451.05;1724895;82;20969;-71
2021/05/26 14:02:44;;;;;;;5.00;3.50;;;;;;;20.34;70.19;100453.34;1720346;82;20965;-76
